createdAt,value
2024-03-25T00:00:13.700Z,86.29
2024-03-25T00:01:13.685Z,86.29
2024-03-25T00:02:13.671Z,86.18
2024-03-25T00:03:13.663Z,86.08
2024-03-25T00:04:13.655Z,85.87
2024-03-25T00:05:13.630Z,85.87
2024-03-25T00:06:13.636Z,85.57
2024-03-25T00:07:13.612Z,85.46
2024-03-25T00:08:13.605Z,85.22
2024-03-25T00:09:13.585Z,85.31
2024-03-25T00:10:13.590Z,85.31
2024-03-25T00:11:13.605Z,85.31
2024-03-25T00:12:13.564Z,85.15
2024-03-25T00:13:13.552Z,84.94
2024-03-25T00:14:13.569Z,84.80
2024-03-25T00:15:13.532Z,84.64
2024-03-25T00:16:13.551Z,84.49
2024-03-25T00:17:13.506Z,84.59
2024-03-25T00:18:13.518Z,84.43
2024-03-25T00:19:13.505Z,84.59
2024-03-25T00:20:13.495Z,84.49
2024-03-25T00:21:13.478Z,84.49
2024-03-25T00:22:13.466Z,84.59
2024-03-25T00:23:13.451Z,84.29
2024-03-25T00:24:13.444Z,83.77
2024-03-25T00:25:13.431Z,83.98
2024-03-25T00:26:13.441Z,84.29
2024-03-25T00:27:13.415Z,84.19
2024-03-25T00:28:13.424Z,83.91
2024-03-25T00:29:13.409Z,84.22
2024-03-25T00:30:13.381Z,84.33
2024-03-25T00:31:13.408Z,84.64
2024-03-25T00:32:13.365Z,84.70
2024-03-25T00:33:13.348Z,84.74
2024-03-25T00:34:13.341Z,84.53
2024-03-25T00:35:13.332Z,84.64
2024-03-25T00:36:13.339Z,84.94
2024-03-25T00:37:13.317Z,85.01
2024-03-25T00:38:13.300Z,85.11
2024-03-25T00:39:13.291Z,84.91
2024-03-25T00:40:13.278Z,84.80
2024-03-25T00:41:13.286Z,85.01
2024-03-25T00:42:13.272Z,84.80
2024-03-25T00:43:13.248Z,84.80
2024-03-25T00:44:13.236Z,84.91
2024-03-25T00:45:13.241Z,84.70
2024-03-25T00:46:13.231Z,84.59
2024-03-25T00:47:13.208Z,84.49
2024-03-25T00:48:13.214Z,84.39
2024-03-25T00:49:13.187Z,84.49
2024-03-25T00:50:13.201Z,83.77
2024-03-25T00:51:13.185Z,84.08
2024-03-25T00:52:13.175Z,83.98
2024-03-25T00:53:13.164Z,84.08
2024-03-25T00:54:13.147Z,84.19
2024-03-25T00:55:13.132Z,84.19
2024-03-25T00:56:13.152Z,83.98
2024-03-25T00:57:13.110Z,83.47
2024-03-25T00:58:13.115Z,83.87
2024-03-25T00:59:13.099Z,83.77
2024-03-25T01:00:13.082Z,83.87
2024-03-25T01:01:13.101Z,84.08
2024-03-25T01:02:13.063Z,83.98
2024-03-25T01:03:13.058Z,83.87
2024-03-25T01:04:13.047Z,83.87
2024-03-25T01:05:13.031Z,83.91
2024-03-25T01:06:13.045Z,83.47
2024-03-25T01:07:13.017Z,82.68
2024-03-25T01:08:13.008Z,82.95
2024-03-25T01:09:12.994Z,83.26
2024-03-25T01:10:13.005Z,82.95
2024-03-25T01:11:12.984Z,82.74
2024-03-25T01:12:12.955Z,82.84
2024-03-25T01:13:12.951Z,82.64
2024-03-25T01:14:12.964Z,82.84
2024-03-25T01:15:12.919Z,82.54
2024-03-25T01:16:12.936Z,82.74
2024-03-25T01:17:12.913Z,82.84
2024-03-25T01:18:12.900Z,82.74
2024-03-25T01:19:12.918Z,82.64
2024-03-25T01:20:12.900Z,82.95
2024-03-25T01:21:12.895Z,82.84
2024-03-25T01:22:12.853Z,82.84
2024-03-25T01:23:12.845Z,82.98
2024-03-25T01:24:12.842Z,83.15
2024-03-25T01:25:12.850Z,83.15
2024-03-25T01:26:12.840Z,82.95
2024-03-25T01:27:12.819Z,83.26
2024-03-25T01:28:12.803Z,82.89
2024-03-25T01:29:12.782Z,82.68
2024-03-25T01:30:12.775Z,83.09
2024-03-25T01:31:12.802Z,83.61
2024-03-25T01:32:12.752Z,83.50
2024-03-25T01:33:12.750Z,83.29
2024-03-25T01:34:12.753Z,83.19
2024-03-25T01:35:12.735Z,82.95
2024-03-25T01:36:12.742Z,82.68
2024-03-25T01:37:12.700Z,82.37
2024-03-25T01:38:12.702Z,82.84
2024-03-25T01:39:12.694Z,82.84
2024-03-25T01:40:12.674Z,82.43
2024-03-25T01:41:12.680Z,82.33
2024-03-25T01:42:12.657Z,82.54
2024-03-25T01:43:12.650Z,82.64
2024-03-25T01:44:12.635Z,82.64
2024-03-25T01:45:12.629Z,82.95
2024-03-25T01:46:12.625Z,82.95
2024-03-25T01:47:12.608Z,82.95
2024-03-25T01:48:12.594Z,82.95
2024-03-25T01:49:12.605Z,82.84
2024-03-25T01:50:12.578Z,83.05
2024-03-25T01:51:12.599Z,82.64
2024-03-25T01:52:12.565Z,82.64
2024-03-25T01:53:12.545Z,82.54
2024-03-25T01:54:12.537Z,82.64
2024-03-25T01:55:12.518Z,83.26
2024-03-25T01:56:12.527Z,83.26
2024-03-25T01:57:12.497Z,83.36
2024-03-25T01:58:12.513Z,83.47
2024-03-25T01:59:12.488Z,83.47
2024-03-25T02:00:12.476Z,83.47
2024-03-25T02:01:12.503Z,83.47
2024-03-25T02:02:12.457Z,83.87
2024-03-25T02:03:12.432Z,83.98
2024-03-25T02:04:12.434Z,84.08
2024-03-25T02:05:12.430Z,83.98
2024-03-25T02:06:12.426Z,83.87
2024-03-25T02:07:12.405Z,83.98
2024-03-25T02:08:12.391Z,83.26
2024-03-25T02:09:12.371Z,82.84
2024-03-25T02:10:12.368Z,83.36
2024-03-25T02:11:12.377Z,83.26
2024-03-25T02:12:12.366Z,82.57
2024-03-25T02:13:12.352Z,82.57
2024-03-25T02:14:12.326Z,83.09
2024-03-25T02:15:12.321Z,83.71
2024-03-25T02:16:12.328Z,83.81
2024-03-25T02:17:12.299Z,84.01
2024-03-25T02:18:12.295Z,83.91
2024-03-25T02:19:12.285Z,83.19
2024-03-25T02:20:12.275Z,83.13
2024-03-25T02:21:12.291Z,82.10
2024-03-25T02:22:12.256Z,81.79
2024-03-25T02:23:12.262Z,81.99
2024-03-25T02:24:12.226Z,82.30
2024-03-25T02:25:12.227Z,82.71
2024-03-25T02:26:12.233Z,82.82
2024-03-25T02:27:12.199Z,82.71
2024-03-25T02:28:12.200Z,81.68
2024-03-25T02:29:12.172Z,81.79
2024-03-25T02:30:12.181Z,81.27
2024-03-25T02:31:12.178Z,81.07
2024-03-25T02:32:12.161Z,80.76
2024-03-25T02:33:12.141Z,81.07
2024-03-25T02:34:12.164Z,80.96
2024-03-25T02:35:12.118Z,81.07
2024-03-25T02:36:12.121Z,81.17
2024-03-25T02:37:12.165Z,81.37
2024-03-25T02:38:12.120Z,81.58
2024-03-25T02:39:12.079Z,81.58
2024-03-25T02:40:12.063Z,81.85
2024-03-25T02:41:12.068Z,81.99
2024-03-25T02:42:12.060Z,82.30
2024-03-25T02:43:12.036Z,82.71
2024-03-25T02:44:12.027Z,83.03
2024-03-25T02:45:12.018Z,82.71
2024-03-25T02:46:12.047Z,82.71
2024-03-25T02:47:11.995Z,83.23
2024-03-25T02:48:12.012Z,83.54
2024-03-25T02:49:11.982Z,83.33
2024-03-25T02:50:11.992Z,83.23
2024-03-25T02:51:11.977Z,83.64
2024-03-25T02:52:11.951Z,83.95
2024-03-25T02:53:11.942Z,84.06
2024-03-25T02:54:11.936Z,84.27
2024-03-25T02:55:11.923Z,84.36
2024-03-25T02:56:11.926Z,84.67
2024-03-25T02:57:11.899Z,84.67
2024-03-25T02:58:11.893Z,85.19
2024-03-25T02:59:11.890Z,85.30
2024-03-25T03:00:11.898Z,85.39
2024-03-25T03:01:11.869Z,85.50
2024-03-25T03:02:11.859Z,85.50
2024-03-25T03:03:11.833Z,85.60
2024-03-25T03:04:11.838Z,85.71
2024-03-25T03:05:11.819Z,85.19
2024-03-25T03:06:11.821Z,85.19
2024-03-25T03:07:11.805Z,84.78
2024-03-25T03:08:11.810Z,84.22
2024-03-25T03:09:11.783Z,83.33
2024-03-25T03:10:11.770Z,83.23
2024-03-25T03:11:11.763Z,83.33
2024-03-25T03:12:11.750Z,83.33
2024-03-25T03:13:11.727Z,83.64
2024-03-25T03:14:11.720Z,83.44
2024-03-25T03:15:11.712Z,83.33
2024-03-25T03:16:11.729Z,83.54
2024-03-25T03:17:11.702Z,83.75
2024-03-25T03:18:11.701Z,83.64
2024-03-25T03:19:11.668Z,83.64
2024-03-25T03:20:11.667Z,83.33
2024-03-25T03:21:11.663Z,83.23
2024-03-25T03:22:11.641Z,83.54
2024-03-25T03:23:11.634Z,83.54
2024-03-25T03:24:11.629Z,83.85
2024-03-25T03:25:11.616Z,84.06
2024-03-25T03:26:11.619Z,84.36
2024-03-25T03:27:11.591Z,84.57
2024-03-25T03:28:11.582Z,84.57
2024-03-25T03:29:11.579Z,84.78
2024-03-25T03:30:11.560Z,84.99
2024-03-25T03:31:17.582Z,84.88
2024-03-25T03:32:11.546Z,85.39
2024-03-25T03:33:11.539Z,85.50
2024-03-25T03:34:11.531Z,85.64
2024-03-25T03:35:11.519Z,85.39
2024-03-25T03:36:11.531Z,85.33
2024-03-25T03:37:11.496Z,85.95
2024-03-25T03:38:11.506Z,86.12
2024-03-25T03:39:11.472Z,85.91
2024-03-25T03:40:11.465Z,85.85
2024-03-25T03:41:11.473Z,85.60
2024-03-25T03:42:11.457Z,85.71
2024-03-25T03:43:11.433Z,85.71
2024-03-25T03:44:11.425Z,85.39
2024-03-25T03:45:11.431Z,85.19
2024-03-25T03:46:11.414Z,85.39
2024-03-25T03:47:11.393Z,85.60
2024-03-25T03:48:11.388Z,85.71
2024-03-25T03:49:11.374Z,85.39
2024-03-25T03:50:11.381Z,85.39
2024-03-25T03:51:11.372Z,85.75
2024-03-25T03:52:11.365Z,85.75
2024-03-25T03:53:11.334Z,86.36
2024-03-25T03:54:11.323Z,86.57
2024-03-25T03:55:12.177Z,86.26
2024-03-25T03:56:11.322Z,86.05
2024-03-25T03:57:11.298Z,86.16
2024-03-25T03:58:11.304Z,86.05
2024-03-25T03:59:11.286Z,85.85
2024-03-25T04:00:11.261Z,85.75
2024-03-25T04:01:11.270Z,85.85
2024-03-25T04:02:11.246Z,85.91
2024-03-25T04:03:11.293Z,85.81
2024-03-25T04:04:11.229Z,85.60
2024-03-25T04:05:11.222Z,85.50
2024-03-25T04:06:11.235Z,84.78
2024-03-25T04:07:11.196Z,85.09
2024-03-25T04:08:11.205Z,85.39
2024-03-25T04:09:11.202Z,85.39
2024-03-25T04:10:11.169Z,85.23
2024-03-25T04:11:11.171Z,85.13
2024-03-25T04:12:11.159Z,85.54
2024-03-25T04:13:11.137Z,85.33
2024-03-25T04:14:11.117Z,85.23
2024-03-25T04:15:11.122Z,85.64
2024-03-25T04:16:11.163Z,85.54
2024-03-25T04:17:11.100Z,85.64
2024-03-25T04:18:11.089Z,85.75
2024-03-25T04:19:11.087Z,85.75
2024-03-25T04:20:11.079Z,85.95
2024-03-25T04:21:11.088Z,86.16
2024-03-25T04:22:11.046Z,86.05
2024-03-25T04:23:11.057Z,85.64
2024-03-25T04:24:11.024Z,85.54
2024-03-25T04:25:11.014Z,84.92
2024-03-25T04:26:11.013Z,85.13
2024-03-25T04:27:10.986Z,84.72
2024-03-25T04:28:10.992Z,84.92
2024-03-25T04:29:10.976Z,84.81
2024-03-25T04:30:10.965Z,85.02
2024-03-25T04:31:10.975Z,84.92
2024-03-25T04:32:10.950Z,84.88
2024-03-25T04:33:10.944Z,84.99
2024-03-25T04:34:10.932Z,84.99
2024-03-25T04:35:10.912Z,84.99
2024-03-25T04:36:10.915Z,84.67
2024-03-25T04:37:10.932Z,84.67
2024-03-25T04:38:10.902Z,84.57
2024-03-25T04:39:10.881Z,84.78
2024-03-25T04:40:10.862Z,84.88
2024-03-25T04:41:10.885Z,84.67
2024-03-25T04:42:10.846Z,83.95
2024-03-25T04:43:10.841Z,84.41
2024-03-25T04:44:10.827Z,84.57
2024-03-25T04:45:10.818Z,84.47
2024-03-25T04:46:10.818Z,84.78
2024-03-25T04:47:10.797Z,84.57
2024-03-25T04:48:10.787Z,84.47
2024-03-25T04:49:10.779Z,84.78
2024-03-25T04:50:10.777Z,84.78
2024-03-25T04:51:11.535Z,84.57
2024-03-25T04:52:10.763Z,84.47
2024-03-25T04:53:10.767Z,84.36
2024-03-25T04:54:10.729Z,84.36
2024-03-25T04:55:10.732Z,84.78
2024-03-25T04:56:10.762Z,84.88
2024-03-25T04:57:10.754Z,84.88
2024-03-25T04:58:10.686Z,84.67
2024-03-25T04:59:10.666Z,84.99
2024-03-25T05:00:10.653Z,85.30
2024-03-25T05:01:10.731Z,84.99
2024-03-25T05:02:10.689Z,85.19
2024-03-25T05:03:10.638Z,85.39
2024-03-25T05:04:10.643Z,85.71
2024-03-25T05:05:10.612Z,85.60
2024-03-25T05:06:10.616Z,85.30
2024-03-25T05:07:10.591Z,85.39
2024-03-25T05:08:10.577Z,85.50
2024-03-25T05:09:10.573Z,85.50
2024-03-25T05:10:10.564Z,85.50
2024-03-25T05:11:10.557Z,85.19
2024-03-25T05:12:10.541Z,84.99
2024-03-25T05:13:10.542Z,85.19
2024-03-25T05:14:10.538Z,85.39
2024-03-25T05:15:10.508Z,85.50
2024-03-25T05:16:10.508Z,85.19
2024-03-25T05:17:10.482Z,85.30
2024-03-25T05:18:10.496Z,84.67
2024-03-25T05:19:10.463Z,84.57
2024-03-25T05:20:10.450Z,84.78
2024-03-25T05:21:10.452Z,84.88
2024-03-25T05:22:10.426Z,85.19
2024-03-25T05:23:10.426Z,85.19
2024-03-25T05:24:10.423Z,85.09
2024-03-25T05:25:10.431Z,85.09
2024-03-25T05:26:10.426Z,84.99
2024-03-25T05:27:10.390Z,84.88
2024-03-25T05:28:10.388Z,84.67
2024-03-25T05:29:10.373Z,84.99
2024-03-25T05:30:11.645Z,84.78
2024-03-25T05:31:10.349Z,84.78
2024-03-25T05:32:10.332Z,84.78
2024-03-25T05:33:10.313Z,84.78
2024-03-25T05:34:10.305Z,84.88
2024-03-25T05:35:10.307Z,84.36
2024-03-25T05:36:10.304Z,84.57
2024-03-25T05:37:10.385Z,84.67
2024-03-25T05:38:10.263Z,84.67
2024-03-25T05:39:10.257Z,84.78
2024-03-25T05:40:10.249Z,84.57
2024-03-25T05:41:10.255Z,84.33
2024-03-25T05:42:10.231Z,84.67
2024-03-25T05:43:10.222Z,84.36
2024-03-25T05:44:10.217Z,84.47
2024-03-25T05:45:10.188Z,84.67
2024-03-25T05:46:10.198Z,84.78
2024-03-25T05:47:10.169Z,85.09
2024-03-25T05:48:10.418Z,84.88
2024-03-25T05:49:10.152Z,84.47
2024-03-25T05:50:10.152Z,84.16
2024-03-25T05:51:10.148Z,84.16
2024-03-25T05:52:10.154Z,83.89
2024-03-25T05:53:10.119Z,84.06
2024-03-25T05:54:10.110Z,84.16
2024-03-25T05:55:10.110Z,84.16
2024-03-25T05:56:10.103Z,83.85
2024-03-25T05:57:10.067Z,84.16
2024-03-25T05:58:10.081Z,84.99
2024-03-25T05:59:10.049Z,85.19
2024-03-25T06:00:10.053Z,85.19
2024-03-25T06:01:10.066Z,85.13
2024-03-25T06:02:10.028Z,85.23
2024-03-25T06:03:10.016Z,85.33
2024-03-25T06:04:10.027Z,85.02
2024-03-25T06:05:10.000Z,84.92
2024-03-25T06:06:10.002Z,85.44
2024-03-25T06:07:09.965Z,85.75
2024-03-25T06:08:09.966Z,86.05
2024-03-25T06:09:09.955Z,86.05
2024-03-25T06:10:09.946Z,85.71
2024-03-25T06:11:09.942Z,85.39
2024-03-25T06:12:09.936Z,85.30
2024-03-25T06:13:09.902Z,85.30
2024-03-25T06:14:09.924Z,85.60
2024-03-25T06:15:09.897Z,85.09
2024-03-25T06:16:09.900Z,85.19
2024-03-25T06:17:09.906Z,85.50
2024-03-25T06:18:09.870Z,85.50
2024-03-25T06:19:09.896Z,85.60
2024-03-25T06:20:09.892Z,85.39
2024-03-25T06:21:09.861Z,85.15
2024-03-25T06:22:09.862Z,85.09
2024-03-25T06:23:09.818Z,85.36
2024-03-25T06:24:09.834Z,85.57
2024-03-25T06:25:09.794Z,85.46
2024-03-25T06:26:09.828Z,84.78
2024-03-25T06:27:11.271Z,84.78
2024-03-25T06:28:09.811Z,84.57
2024-03-25T06:29:09.748Z,85.19
2024-03-25T06:30:09.770Z,84.57
2024-03-25T06:31:09.783Z,84.88
2024-03-25T06:32:09.739Z,84.67
2024-03-25T06:33:09.709Z,85.09
2024-03-25T06:34:09.701Z,85.30
2024-03-25T06:35:09.703Z,84.78
2024-03-25T06:36:09.710Z,85.09
2024-03-25T06:37:09.675Z,85.30
2024-03-25T06:38:09.717Z,85.19
2024-03-25T06:39:09.649Z,85.60
2024-03-25T06:40:09.661Z,85.71
2024-03-25T06:41:09.655Z,85.81
2024-03-25T06:42:09.608Z,85.09
2024-03-25T06:43:09.604Z,85.19
2024-03-25T06:44:09.622Z,85.60
2024-03-25T06:45:09.594Z,85.50
2024-03-25T06:46:09.607Z,85.50
2024-03-25T06:47:09.550Z,85.39
2024-03-25T06:48:09.555Z,85.71
2024-03-25T06:49:09.546Z,85.71
2024-03-25T06:50:09.637Z,85.30
2024-03-25T06:51:09.536Z,85.39
2024-03-25T06:52:09.520Z,85.30
2024-03-25T06:53:09.545Z,85.71
2024-03-25T06:54:09.501Z,85.60
2024-03-25T06:55:09.482Z,85.30
2024-03-25T06:56:09.517Z,85.50
2024-03-25T06:57:09.458Z,85.60
2024-03-25T06:58:09.451Z,85.60
2024-03-25T06:59:09.497Z,85.60
2024-03-25T07:00:09.480Z,85.30
2024-03-25T07:01:09.461Z,85.09
2024-03-25T07:02:09.450Z,85.09
2024-03-25T07:03:09.397Z,84.57
2024-03-25T07:04:09.403Z,84.99
2024-03-25T07:05:09.429Z,84.47
2024-03-25T07:06:09.414Z,84.88
2024-03-25T07:07:09.352Z,85.39
2024-03-25T07:08:09.371Z,85.30
2024-03-25T07:09:09.334Z,85.30
2024-03-25T07:10:09.357Z,85.19
2024-03-25T07:11:09.396Z,85.09
2024-03-25T07:12:09.316Z,84.78
2024-03-25T07:13:09.316Z,85.60
2024-03-25T07:14:09.353Z,85.81
2024-03-25T07:15:09.282Z,85.60
2024-03-25T07:16:09.291Z,85.91
2024-03-25T07:17:09.335Z,85.81
2024-03-25T07:18:09.277Z,85.81
2024-03-25T07:19:09.258Z,85.81
2024-03-25T07:20:09.293Z,85.25
2024-03-25T07:21:09.246Z,85.19
2024-03-25T07:22:09.219Z,84.99
2024-03-25T07:23:09.256Z,85.19
2024-03-25T07:24:09.205Z,85.50
2024-03-25T07:25:09.173Z,85.71
2024-03-25T07:26:09.221Z,85.81
2024-03-25T07:27:09.154Z,85.91
2024-03-25T07:28:09.183Z,85.91
2024-03-25T07:29:09.154Z,86.02
2024-03-25T07:30:09.172Z,85.60
2024-03-25T07:31:09.144Z,85.81
2024-03-25T07:32:09.156Z,86.02
2024-03-25T07:33:09.096Z,85.91
2024-03-25T07:34:09.076Z,85.77
2024-03-25T07:35:09.118Z,85.77
2024-03-25T07:36:09.088Z,86.08
2024-03-25T07:37:09.052Z,85.87
2024-03-25T07:38:09.121Z,85.77
2024-03-25T07:39:09.043Z,85.50
2024-03-25T07:40:09.050Z,85.97
2024-03-25T07:41:09.043Z,86.29
2024-03-25T07:42:09.010Z,85.39
2024-03-25T07:43:08.997Z,85.71
2024-03-25T07:44:08.984Z,86.02
2024-03-25T07:45:08.976Z,86.12
2024-03-25T07:46:08.993Z,86.32
2024-03-25T07:47:08.986Z,86.43
2024-03-25T07:48:08.957Z,85.91
2024-03-25T07:49:08.935Z,86.02
2024-03-25T07:50:08.931Z,85.91
2024-03-25T07:51:08.925Z,85.60
2024-03-25T07:52:08.917Z,86.22
2024-03-25T07:53:08.904Z,86.29
2024-03-25T07:54:08.920Z,85.87
2024-03-25T07:55:08.900Z,85.57
2024-03-25T07:56:08.902Z,85.36
2024-03-25T07:57:08.845Z,85.36
2024-03-25T07:58:08.859Z,85.15
2024-03-25T07:59:08.830Z,85.36
2024-03-25T08:00:08.920Z,84.94
2024-03-25T08:01:08.847Z,84.84
2024-03-25T08:02:08.810Z,84.39
2024-03-25T08:03:08.794Z,84.39
2024-03-25T08:04:08.794Z,83.98
2024-03-25T08:05:08.868Z,84.08
2024-03-25T08:06:08.881Z,84.08
2024-03-25T08:07:08.801Z,84.08
2024-03-25T08:08:08.764Z,83.98
2024-03-25T08:09:08.763Z,83.87
2024-03-25T08:10:08.782Z,83.19
2024-03-25T08:11:08.719Z,83.61
2024-03-25T08:12:08.728Z,83.09
2024-03-25T08:13:09.053Z,83.61
2024-03-25T08:14:08.779Z,83.71
2024-03-25T08:15:08.736Z,84.33
2024-03-25T08:16:08.731Z,83.61
2024-03-25T08:17:08.674Z,83.81
2024-03-25T08:18:08.637Z,83.71
2024-03-25T08:19:08.708Z,83.91
2024-03-25T08:20:08.689Z,83.91
2024-03-25T08:21:08.645Z,84.33
2024-03-25T08:22:08.594Z,84.43
2024-03-25T08:23:08.599Z,84.70
2024-03-25T08:24:08.575Z,83.87
2024-03-25T08:25:08.574Z,84.19
2024-03-25T08:26:08.594Z,83.87
2024-03-25T08:27:08.560Z,83.47
2024-03-25T08:28:08.557Z,83.98
2024-03-25T08:29:08.569Z,84.19
2024-03-25T08:30:08.509Z,84.19
2024-03-25T08:31:08.506Z,84.29
2024-03-25T08:32:08.548Z,84.08
2024-03-25T08:33:08.512Z,83.87
2024-03-25T08:34:08.524Z,83.84
2024-03-25T08:35:08.674Z,83.84
2024-03-25T08:36:08.491Z,84.25
2024-03-25T08:37:08.467Z,83.53
2024-03-25T08:38:08.443Z,83.42
2024-03-25T08:39:09.203Z,82.60
2024-03-25T08:40:08.410Z,83.07
2024-03-25T08:41:08.437Z,83.28
2024-03-25T08:42:08.388Z,83.28
2024-03-25T08:43:08.404Z,83.18
2024-03-25T08:44:08.398Z,82.67
2024-03-25T08:45:08.390Z,83.07
2024-03-25T08:46:08.448Z,83.28
2024-03-25T08:47:08.363Z,82.87
2024-03-25T08:48:08.840Z,83.39
2024-03-25T08:49:08.414Z,83.28
2024-03-25T08:50:08.337Z,82.56
2024-03-25T08:51:08.301Z,83.07
2024-03-25T08:52:08.397Z,83.59
2024-03-25T08:53:08.285Z,83.39
2024-03-25T08:54:08.277Z,82.35
2024-03-25T08:55:08.301Z,82.35
2024-03-25T08:56:08.287Z,82.77
2024-03-25T08:57:08.237Z,81.39
2024-03-25T08:58:08.233Z,81.53
2024-03-25T08:59:08.214Z,81.74
2024-03-25T09:00:08.257Z,81.60
2024-03-25T09:01:08.252Z,81.23
2024-03-25T09:02:09.288Z,81.43
2024-03-25T09:03:08.209Z,81.49
2024-03-25T09:04:10.718Z,81.70
2024-03-25T09:05:08.163Z,81.91
2024-03-25T09:06:08.163Z,81.63
2024-03-25T09:07:08.152Z,81.74
2024-03-25T09:08:08.130Z,81.95
2024-03-25T09:09:08.136Z,81.95
2024-03-25T09:10:08.107Z,82.15
2024-03-25T09:11:08.189Z,82.56
2024-03-25T09:12:08.093Z,82.73
2024-03-25T09:13:08.141Z,82.83
2024-03-25T09:14:08.178Z,82.53
2024-03-25T09:15:08.056Z,82.11
2024-03-25T09:16:08.127Z,81.39
2024-03-25T09:17:08.075Z,81.60
2024-03-25T09:18:08.032Z,81.81
2024-03-25T09:19:08.120Z,81.60
2024-03-25T09:20:08.043Z,81.09
2024-03-25T09:21:08.059Z,81.29
2024-03-25T09:22:08.005Z,81.70
2024-03-25T09:23:08.023Z,81.60
2024-03-25T09:24:07.980Z,81.91
2024-03-25T09:25:07.960Z,80.98
2024-03-25T09:26:08.017Z,81.15
2024-03-25T09:27:07.974Z,81.67
2024-03-25T09:28:08.016Z,80.74
2024-03-25T09:29:07.972Z,80.33
2024-03-25T09:30:07.903Z,80.53
2024-03-25T09:31:07.972Z,80.84
2024-03-25T09:32:13.964Z,80.33
2024-03-25T09:33:07.896Z,80.02
2024-03-25T09:34:07.911Z,80.33
2024-03-25T09:35:07.879Z,80.33
2024-03-25T09:36:07.851Z,78.72
2024-03-25T09:37:07.855Z,79.71
2024-03-25T09:38:07.866Z,80.22
2024-03-25T09:39:07.819Z,79.61
2024-03-25T09:40:07.815Z,80.12
2024-03-25T09:41:07.815Z,79.91
2024-03-25T09:42:07.798Z,78.58
2024-03-25T09:43:07.774Z,78.89
2024-03-25T09:44:07.770Z,78.58
2024-03-25T09:45:07.756Z,78.89
2024-03-25T09:46:07.772Z,78.06
2024-03-25T09:47:07.760Z,78.68
2024-03-25T09:48:07.763Z,78.27
2024-03-25T09:49:07.703Z,77.45
2024-03-25T09:50:07.706Z,78.20
2024-03-25T09:51:07.739Z,78.92
2024-03-25T09:52:07.690Z,79.23
2024-03-25T09:53:07.674Z,79.03
2024-03-25T09:54:07.667Z,79.50
2024-03-25T09:55:07.641Z,78.58
2024-03-25T09:56:07.675Z,79.30
2024-03-25T09:57:07.772Z,78.99
2024-03-25T09:58:07.645Z,78.68
2024-03-25T09:59:07.660Z,79.19
2024-03-25T10:00:07.618Z,79.50
2024-03-25T10:01:07.655Z,79.16
2024-03-25T10:02:07.644Z,77.34
2024-03-25T10:03:07.563Z,78.27
2024-03-25T10:04:07.571Z,77.34
2024-03-25T10:05:07.612Z,78.06
2024-03-25T10:06:07.570Z,78.27
2024-03-25T10:07:07.521Z,78.17
2024-03-25T10:08:07.560Z,78.78
2024-03-25T10:09:07.576Z,78.78
2024-03-25T10:10:07.507Z,79.50
2024-03-25T10:11:07.530Z,78.23
2024-03-25T10:12:07.482Z,77.92
2024-03-25T10:13:07.478Z,78.54
2024-03-25T10:14:07.460Z,77.41
2024-03-25T10:15:07.478Z,77.92
2024-03-25T10:16:07.459Z,78.03
2024-03-25T10:17:07.428Z,77.72
2024-03-25T10:18:07.421Z,77.17
2024-03-25T10:19:07.397Z,77.68
2024-03-25T10:20:07.406Z,74.70
2024-03-25T10:21:07.406Z,74.80
2024-03-25T10:22:07.394Z,76.00
2024-03-25T10:23:07.378Z,76.58
2024-03-25T10:24:07.377Z,76.38
2024-03-25T10:25:07.350Z,75.56
2024-03-25T10:26:07.432Z,75.45
2024-03-25T10:27:07.331Z,75.15
2024-03-25T10:28:07.324Z,75.52
2024-03-25T10:29:07.321Z,74.80
2024-03-25T10:30:07.335Z,75.01
2024-03-25T10:31:07.378Z,75.11
2024-03-25T10:32:07.287Z,73.88
2024-03-25T10:33:07.276Z,73.78
2024-03-25T10:34:07.308Z,74.19
2024-03-25T10:35:07.240Z,74.77
2024-03-25T10:36:07.268Z,74.46
2024-03-25T10:37:07.262Z,74.15
2024-03-25T10:38:07.229Z,74.57
2024-03-25T10:39:07.271Z,74.77
2024-03-25T10:40:07.185Z,74.57
2024-03-25T10:41:08.059Z,74.57
2024-03-25T10:42:07.183Z,73.91
2024-03-25T10:43:07.167Z,72.82
2024-03-25T10:44:07.173Z,72.61
2024-03-25T10:45:07.213Z,72.31
2024-03-25T10:46:07.160Z,72.92
2024-03-25T10:47:07.131Z,72.20
2024-03-25T10:48:07.117Z,71.80
2024-03-25T10:49:07.096Z,70.36
2024-03-25T10:50:07.191Z,71.59
2024-03-25T10:51:07.129Z,71.80
2024-03-25T10:52:07.071Z,71.08
2024-03-25T10:53:07.065Z,70.87
2024-03-25T10:54:07.048Z,69.64
2024-03-25T10:55:07.055Z,70.26
2024-03-25T10:56:07.035Z,69.88
2024-03-25T10:57:07.021Z,69.37
2024-03-25T10:58:07.006Z,70.39
2024-03-25T10:59:06.993Z,72.03
2024-03-25T11:00:07.003Z,69.06
2024-03-25T11:01:07.067Z,70.05
2024-03-25T11:02:06.972Z,70.97
2024-03-25T11:03:06.955Z,71.18
2024-03-25T11:04:06.958Z,71.80
2024-03-25T11:05:06.964Z,71.56
2024-03-25T11:06:06.953Z,71.45
2024-03-25T11:07:06.913Z,69.40
2024-03-25T11:08:06.911Z,68.38
2024-03-25T11:09:06.884Z,67.14
2024-03-25T11:10:06.897Z,69.17
2024-03-25T11:11:06.876Z,68.35
2024-03-25T11:12:06.867Z,68.24
2024-03-25T11:13:06.871Z,67.11
2024-03-25T11:14:06.859Z,65.78
2024-03-25T11:15:06.826Z,65.37
2024-03-25T11:16:06.845Z,67.46
2024-03-25T11:17:06.812Z,67.56
2024-03-25T11:18:06.837Z,65.48
2024-03-25T11:19:06.774Z,66.60
2024-03-25T11:20:06.776Z,68.04
2024-03-25T11:21:06.786Z,65.99
2024-03-25T11:22:06.750Z,66.40
2024-03-25T11:23:06.737Z,66.91
2024-03-25T11:24:06.733Z,65.07
2024-03-25T11:25:06.717Z,64.97
2024-03-25T11:26:06.722Z,64.35
2024-03-25T11:27:06.694Z,64.65
2024-03-25T11:28:06.689Z,66.30
2024-03-25T11:29:06.677Z,64.86
2024-03-25T11:30:06.678Z,65.04
2024-03-25T11:31:06.692Z,64.86
2024-03-25T11:32:06.641Z,64.94
2024-03-25T11:33:06.628Z,62.27
2024-03-25T11:34:06.667Z,63.60
2024-03-25T11:35:06.618Z,64.42
2024-03-25T11:36:06.647Z,64.53
2024-03-25T11:37:06.587Z,63.06
2024-03-25T11:38:06.591Z,62.68
2024-03-25T11:39:06.574Z,63.17
2024-03-25T11:40:06.567Z,63.37
2024-03-25T11:41:06.602Z,64.09
2024-03-25T11:42:06.551Z,63.98
2024-03-25T11:43:06.529Z,66.20
2024-03-25T11:44:06.527Z,64.16
2024-03-25T11:45:06.506Z,63.85
2024-03-25T11:46:06.534Z,62.62
2024-03-25T11:47:07.448Z,61.09
2024-03-25T11:48:06.493Z,62.11
2024-03-25T11:49:06.459Z,62.93
2024-03-25T11:50:06.446Z,62.01
2024-03-25T11:51:06.462Z,61.09
2024-03-25T11:52:06.456Z,60.78
2024-03-25T11:53:06.439Z,62.01
2024-03-25T11:54:06.413Z,63.54
2024-03-25T11:55:06.410Z,63.85
2024-03-25T11:56:06.416Z,62.11
2024-03-25T11:57:06.363Z,62.93
2024-03-25T11:58:06.398Z,61.36
2024-03-25T11:59:06.360Z,64.16
2024-03-25T12:00:06.350Z,63.75
2024-03-25T12:01:06.340Z,63.41
2024-03-25T12:02:06.327Z,64.54
2024-03-25T12:03:06.337Z,64.74
2024-03-25T12:04:06.304Z,63.10
2024-03-25T12:05:06.288Z,62.29
2024-03-25T12:06:06.296Z,60.44
2024-03-25T12:07:06.265Z,61.26
2024-03-25T12:08:06.279Z,61.16
2024-03-25T12:09:06.268Z,62.80
2024-03-25T12:10:06.262Z,62.08
2024-03-25T12:11:06.246Z,61.88
2024-03-25T12:12:06.210Z,59.83
2024-03-25T12:13:06.220Z,58.12
2024-03-25T12:14:06.468Z,58.15
2024-03-25T12:15:06.187Z,58.45
2024-03-25T12:16:06.199Z,61.52
2024-03-25T12:17:06.163Z,60.60
2024-03-25T12:18:06.149Z,61.22
2024-03-25T12:19:06.144Z,61.50
2024-03-25T12:20:06.165Z,59.38
2024-03-25T12:21:06.147Z,60.60
2024-03-25T12:22:06.114Z,61.11
2024-03-25T12:23:06.111Z,61.32
2024-03-25T12:24:06.089Z,61.11
2024-03-25T12:25:06.085Z,60.50
2024-03-25T12:26:06.089Z,59.27
2024-03-25T12:27:06.060Z,59.35
2024-03-25T12:28:06.049Z,57.12
2024-03-25T12:29:06.036Z,59.89
2024-03-25T12:30:05.025Z,58.97
2024-03-25T12:31:06.044Z,59.68
2024-03-25T12:32:06.009Z,60.71
2024-03-25T12:33:05.997Z,59.38
2024-03-25T12:34:06.001Z,61.22
2024-03-25T12:35:05.993Z,59.27
2024-03-25T12:36:05.987Z,59.68
2024-03-25T12:37:05.982Z,61.50
2024-03-25T12:38:06.511Z,59.66
2024-03-25T12:39:05.926Z,59.04
2024-03-25T12:40:05.932Z,58.43
2024-03-25T12:41:05.925Z,58.63
2024-03-25T12:42:05.918Z,58.04
2024-03-25T12:43:05.896Z,59.86
2024-03-25T12:44:05.879Z,60.27
2024-03-25T12:45:05.869Z,58.84
2024-03-25T12:46:05.897Z,59.76
2024-03-25T12:47:06.545Z,59.35
2024-03-25T12:48:05.843Z,59.55
2024-03-25T12:49:05.831Z,59.96
2024-03-25T12:50:05.822Z,59.25
2024-03-25T12:51:05.818Z,59.25
2024-03-25T12:52:05.797Z,59.45